Аэропорт: Адлер. Сочи

ICAO: URSS

METAR:
2018/09/23 11:00
URSS 231100Z 22004MPS 9999 SCT020CB BKN100 25/20 Q1017 R02/090070 R06/090070 NOSIG RMK R06/24004MPS MT OBSC QFE761
METAR:
2018/09/23 09:24
TAF URSS 230756Z 2309/2409 22005G10MPS 9999 BKN030CB BKN100 
      BECMG 2311/2313 27005G10MPS 
      TEMPO 2312/2316 VRB07G12MPS -TSRA 
      BECMG 2316/2317 05006MPS 
      TEMPO 2317/2406 VRB07G12MPS -TSRA 
      BECMG 2406/2408 14007G12MPS